Time;durP1;ratioP1;P1;durP2;ratioP2;P2;SDS_P1;SDS_P2;PMS_P1;PMS_P2;Temp;Humidity;BMP_temperature;BMP_pressure;BME280_temperature;BME280_humidity;BME280_pressure;Samples;Min_cycle;Max_cycle;Signal;HPM_P1;HPM_P2
2024/04/18 00:01:08;;;;;;;0.30;0.30;;;;;;;2.22;100.00;101335.03;5526408;26;19994;-46
2024/04/18 00:03:33;;;;;;;0.40;0.40;;;;;;;2.23;100.00;101323.19;5526434;26;20323;-50
2024/04/18 00:05:59;;;;;;;0.35;0.35;;;;;;;2.25;100.00;101322.53;5528135;26;20005;-49
2024/04/18 00:08:24;;;;;;;0.40;0.40;;;;;;;2.23;100.00;101329.16;5527285;26;19998;-48
2024/04/18 00:10:53;;;;;;;0.38;0.38;;;;;;;2.22;100.00;101337.59;5527198;26;20073;-49
2024/04/18 00:13:18;;;;;;;0.35;0.35;;;;;;;2.20;100.00;101334.03;5527569;26;20349;-47
2024/04/18 00:15:44;;;;;;;0.50;0.50;;;;;;;2.23;100.00;101336.78;5527087;26;20432;-49
2024/04/18 00:18:09;;;;;;;0.40;0.40;;;;;;;2.13;100.00;101342.00;5526945;26;19997;-46
2024/04/18 00:20:34;;;;;;;0.40;0.40;;;;;;;2.14;100.00;101344.66;5527106;26;20009;-48
2024/04/18 00:22:59;;;;;;;0.40;0.40;;;;;;;2.10;100.00;101339.25;5526747;26;19998;-47
2024/04/18 00:25:25;;;;;;;0.45;0.45;;;;;;;2.06;100.00;101345.75;5526892;26;20009;-46
2024/04/18 00:27:50;;;;;;;0.40;0.40;;;;;;;1.98;100.00;101347.75;5527397;26;20001;-47
2024/04/18 00:30:15;;;;;;;0.32;0.32;;;;;;;1.93;100.00;101348.19;5526648;26;20009;-48
2024/04/18 00:32:41;;;;;;;0.40;0.40;;;;;;;1.93;100.00;101351.59;5526975;26;19994;-46
2024/04/18 00:35:06;;;;;;;0.30;0.30;;;;;;;1.95;100.00;101355.16;5527011;26;20455;-47
2024/04/18 00:37:31;;;;;;;0.35;0.35;;;;;;;1.95;100.00;101362.78;5525972;26;20064;-47
2024/04/18 00:39:56;;;;;;;0.50;0.50;;;;;;;1.94;100.00;101360.13;5526996;26;20028;-47
2024/04/18 00:42:22;;;;;;;0.50;0.50;;;;;;;1.89;100.00;101359.78;5527284;26;19993;-47
2024/04/18 00:44:47;;;;;;;0.40;0.40;;;;;;;2.00;100.00;101359.69;5526371;26;20005;-50
2024/04/18 00:47:13;;;;;;;0.43;0.43;;;;;;;2.01;100.00;101361.47;5526938;26;19997;-48
2024/04/18 00:49:40;;;;;;;0.40;0.40;;;;;;;2.07;100.00;101367.00;5526912;26;20352;-49
2024/04/18 00:52:08;;;;;;;0.47;0.47;;;;;;;2.15;100.00;101363.34;5526182;26;19994;-47
2024/04/18 00:54:33;;;;;;;0.50;0.50;;;;;;;2.25;100.00;101363.22;5526560;26;19997;-47
2024/04/18 00:56:59;;;;;;;0.30;0.30;;;;;;;2.36;100.00;101373.28;5527132;26;20008;-47
2024/04/18 00:59:24;;;;;;;0.40;0.40;;;;;;;2.41;100.00;101371.94;5525789;26;20065;-47
2024/04/18 01:01:50;;;;;;;0.40;0.40;;;;;;;2.50;100.00;101367.50;5526864;26;20324;-49
2024/04/18 01:04:15;;;;;;;0.30;0.30;;;;;;;2.56;100.00;101367.94;5526524;26;19998;-47
2024/04/18 01:06:44;;;;;;;0.47;0.47;;;;;;;2.63;100.00;101367.59;5525454;26;20434;-48
2024/04/18 01:09:09;;;;;;;0.40;0.40;;;;;;;2.66;100.00;101372.03;5526855;26;19993;-47
2024/04/18 01:11:34;;;;;;;0.40;0.40;;;;;;;2.68;100.00;101372.13;5526665;26;20038;-47
2024/04/18 01:14:09;;;;;;;0.30;0.30;;;;;;;2.73;100.00;101373.34;5525604;26;20341;-50
2024/04/18 01:16:35;;;;;;;0.40;0.40;;;;;;;2.78;100.00;101377.09;5526244;26;20076;-48
2024/04/18 01:19:00;;;;;;;0.40;0.40;;;;;;;2.80;100.00;101380.59;5526447;26;20001;-46
2024/04/18 01:21:25;;;;;;;0.30;0.30;;;;;;;2.84;100.00;101384.25;5525197;26;20008;-46
2024/04/18 01:23:50;;;;;;;0.40;0.40;;;;;;;2.88;100.00;101383.69;5526892;26;19998;-46
2024/04/18 01:26:18;;;;;;;0.40;0.40;;;;;;;2.89;100.00;101386.34;5525369;26;20070;-46
2024/04/18 01:28:43;;;;;;;0.40;0.40;;;;;;;2.91;100.00;101387.31;5526332;26;19993;-46
2024/04/18 01:31:09;;;;;;;0.32;0.32;;;;;;;2.94;100.00;101390.09;5526104;26;20061;-49
2024/04/18 01:33:34;;;;;;;0.30;0.30;;;;;;;2.97;100.00;101390.31;5525466;26;20069;-49
2024/04/18 01:35:59;;;;;;;0.40;0.40;;;;;;;3.01;100.00;101398.13;5526264;26;19997;-48
2024/04/18 01:38:25;;;;;;;0.30;0.30;;;;;;;3.04;100.00;101406.00;5526194;26;20128;-47
2024/04/18 01:40:50;;;;;;;0.40;0.40;;;;;;;3.06;100.00;101405.34;5525701;26;20076;-50
2024/04/18 01:43:15;;;;;;;0.35;0.35;;;;;;;3.08;100.00;101402.88;5526036;26;20002;-51
2024/04/18 01:45:40;;;;;;;0.40;0.40;;;;;;;3.12;100.00;101415.06;5525744;26;19993;-47
2024/04/18 01:48:06;;;;;;;0.40;0.40;;;;;;;3.11;100.00;101413.28;5525097;26;20001;-49
2024/04/18 01:50:31;;;;;;;0.30;0.30;;;;;;;3.11;100.00;101415.81;5526069;26;20008;-48
2024/04/18 01:52:58;;;;;;;0.40;0.40;;;;;;;3.11;100.00;101418.38;5526259;26;19997;-48
2024/04/18 01:55:23;;;;;;;0.50;0.50;;;;;;;3.05;100.00;101418.84;5525004;26;20029;-48
2024/04/18 01:57:49;;;;;;;0.40;0.40;;;;;;;3.02;100.00;101417.75;5526300;26;20001;-48
2024/04/18 02:00:14;;;;;;;0.38;0.38;;;;;;;3.03;100.00;101427.16;5525742;26;20009;-49
2024/04/18 02:02:39;;;;;;;0.40;0.40;;;;;;;3.04;100.00;101427.25;5524770;26;20605;-46
2024/04/18 02:05:05;;;;;;;0.40;0.40;;;;;;;3.07;100.00;101430.03;5525610;26;20008;-48
2024/04/18 02:07:30;;;;;;;0.40;0.40;;;;;;;3.08;100.00;101430.91;5525344;26;19993;-49
2024/04/18 02:09:55;;;;;;;0.40;0.40;;;;;;;3.07;100.00;101430.03;5524880;26;20001;-50
2024/04/18 02:12:21;;;;;;;0.30;0.30;;;;;;;3.09;100.00;101435.22;5525598;26;19993;-47
2024/04/18 02:14:47;;;;;;;0.40;0.40;;;;;;;3.08;100.00;101436.88;5526035;26;19994;-48
2024/04/18 02:17:12;;;;;;;0.40;0.40;;;;;;;3.09;100.00;101435.22;5524880;26;20008;-46
2024/04/18 02:19:38;;;;;;;0.43;0.43;;;;;;;3.06;100.00;101435.91;5525294;26;20448;-46
2024/04/18 02:22:03;;;;;;;0.40;0.40;;;;;;;3.04;100.00;101441.66;5525432;26;19993;-46
2024/04/18 02:24:28;;;;;;;0.40;0.40;;;;;;;3.08;100.00;101444.50;5523499;26;20428;-47
2024/04/18 02:26:54;;;;;;;0.50;0.50;;;;;;;3.01;100.00;101438.88;5525611;26;20009;-46
2024/04/18 02:29:19;;;;;;;0.40;0.40;;;;;;;2.99;100.00;101443.00;5525118;26;20005;-48
2024/04/18 02:31:44;;;;;;;0.30;0.30;;;;;;;2.97;100.00;101448.88;5524510;26;19997;-47
2024/04/18 02:34:09;;;;;;;0.40;0.40;;;;;;;2.94;100.00;101446.13;5525123;26;20013;-48
2024/04/18 02:36:35;;;;;;;0.40;0.40;;;;;;;2.92;100.00;101455.28;5524016;26;20009;-46
2024/04/18 02:39:00;;;;;;;0.40;0.40;;;;;;;2.83;100.00;101462.28;5525482;26;20069;-47
2024/04/18 02:41:25;;;;;;;0.40;0.40;;;;;;;2.79;100.00;101453.53;5525070;26;19993;-49
2024/04/18 02:43:52;;;;;;;0.40;0.40;;;;;;;2.86;100.00;101457.41;5524634;26;20005;-48
2024/04/18 02:46:18;;;;;;;0.50;0.50;;;;;;;2.72;100.00;101458.09;5525065;26;20008;-47
2024/04/18 02:48:43;;;;;;;0.40;0.40;;;;;;;2.62;100.00;101465.09;5524984;26;20222;-47
2024/04/18 02:51:08;;;;;;;0.40;0.40;;;;;;;2.62;100.00;101471.81;5524234;26;19993;-49
2024/04/18 02:53:34;;;;;;;0.40;0.40;;;;;;;2.54;100.00;101476.34;5524873;26;20437;-50
2024/04/18 02:55:59;;;;;;;0.50;0.50;;;;;;;2.43;100.00;101474.72;5524770;26;20091;-49
2024/04/18 02:58:25;;;;;;;0.40;0.40;;;;;;;2.38;100.00;101470.94;5523652;26;20009;-49
2024/04/18 03:00:50;;;;;;;0.40;0.40;;;;;;;2.42;100.00;101480.56;5524847;26;19997;-46
2024/04/18 03:03:16;;;;;;;0.45;0.45;;;;;;;2.30;100.00;101478.91;5524723;26;20005;-47
2024/04/18 03:05:41;;;;;;;0.40;0.40;;;;;;;2.29;100.00;101486.41;5523920;26;19994;-46
2024/04/18 03:08:06;;;;;;;0.50;0.50;;;;;;;2.32;100.00;101486.63;5524593;26;20447;-47
2024/04/18 03:10:31;;;;;;;0.50;0.50;;;;;;;2.32;100.00;101489.19;5524617;26;20008;-47
2024/04/18 03:12:57;;;;;;;0.40;0.40;;;;;;;2.33;100.00;101487.53;5523894;26;20005;-47
2024/04/18 03:15:22;;;;;;;0.40;0.40;;;;;;;2.33;100.00;101485.00;5524026;26;20082;-46
2024/04/18 03:17:53;;;;;;;0.40;0.40;;;;;;;2.38;100.00;101492.16;5524653;26;20008;-49
2024/04/18 03:20:18;;;;;;;0.40;0.40;;;;;;;2.47;100.00;101494.50;5523915;26;19993;-48
2024/04/18 03:22:44;;;;;;;0.50;0.50;;;;;;;2.54;100.00;101499.25;5524165;26;20344;-49
2024/04/18 03:25:09;;;;;;;0.40;0.40;;;;;;;2.58;100.00;101495.28;5524197;26;20005;-47
2024/04/18 03:27:34;;;;;;;0.40;0.40;;;;;;;2.55;100.00;101500.16;5523139;26;20253;-51
2024/04/18 03:30:00;;;;;;;0.40;0.40;;;;;;;2.54;100.00;101504.34;5524498;26;20310;-46
2024/04/18 03:32:25;;;;;;;0.35;0.35;;;;;;;2.50;100.00;101502.34;5524107;26;20005;-50
2024/04/18 03:34:51;;;;;;;0.40;0.40;;;;;;;2.41;100.00;101506.78;5523517;26;20314;-47
2024/04/18 03:37:16;;;;;;;0.30;0.30;;;;;;;2.38;100.00;101506.56;5528117;26;20001;-47
2024/04/18 03:39:41;;;;;;;0.40;0.40;;;;;;;2.33;100.00;101510.44;5527627;26;20005;-47
2024/04/18 03:42:06;;;;;;;0.40;0.40;;;;;;;2.27;100.00;101516.84;5527243;26;20069;-46
2024/04/18 03:44:32;;;;;;;0.40;0.40;;;;;;;2.24;100.00;101510.63;5527652;26;20379;-48
2024/04/18 03:46:57;;;;;;;0.50;0.50;;;;;;;2.21;100.00;101513.84;5527111;26;20007;-46
2024/04/18 03:49:22;;;;;;;0.43;0.43;;;;;;;2.21;100.00;101524.00;5527414;26;19997;-49
2024/04/18 03:51:48;;;;;;;0.40;0.40;;;;;;;2.14;100.00;101522.66;5527915;26;20076;-47
2024/04/18 03:54:13;;;;;;;0.50;0.50;;;;;;;2.08;100.00;101522.22;5527003;26;20005;-47
2024/04/18 03:56:38;;;;;;;0.40;0.40;;;;;;;2.04;100.00;101524.41;5527332;26;19997;-47
2024/04/18 03:59:04;;;;;;;0.50;0.50;;;;;;;2.02;100.00;101525.94;5527649;26;19998;-47
2024/04/18 04:01:29;;;;;;;0.40;0.40;;;;;;;1.98;100.00;101530.78;5526552;26;20016;-47
2024/04/18 04:03:55;;;;;;;0.47;0.47;;;;;;;1.88;100.00;101535.94;5527534;26;20009;-47
2024/04/18 04:06:21;;;;;;;0.40;0.40;;;;;;;1.86;100.00;101540.06;5527728;26;20021;-50
2024/04/18 04:08:47;;;;;;;0.40;0.40;;;;;;;1.84;100.00;101539.03;5526912;26;19994;-47
2024/04/18 04:11:13;;;;;;;0.40;0.40;;;;;;;1.86;100.00;101544.22;5527600;26;20373;-50
2024/04/18 04:13:38;;;;;;;0.40;0.40;;;;;;;1.84;100.00;101551.75;5527386;26;20001;-49
2024/04/18 04:16:04;;;;;;;0.40;0.40;;;;;;;1.78;100.00;101548.72;5526838;26;20005;-47
2024/04/18 04:18:29;;;;;;;0.40;0.40;;;;;;;1.70;100.00;101553.22;5527117;26;19998;-46
2024/04/18 04:20:54;;;;;;;0.32;0.32;;;;;;;1.64;100.00;101568.91;5527251;26;19997;-50
2024/04/18 04:23:19;;;;;;;0.40;0.40;;;;;;;1.66;100.00;101568.13;5526156;26;20310;-47
2024/04/18 04:25:45;;;;;;;0.30;0.30;;;;;;;1.66;100.00;101570.69;5527129;26;20008;-50
2024/04/18 04:28:10;;;;;;;0.45;0.45;;;;;;;1.61;100.00;101575.38;5526982;26;19998;-50
2024/04/18 04:30:35;;;;;;;0.50;0.50;;;;;;;1.56;100.00;101572.50;5526132;26;19993;-48
2024/04/18 04:33:00;;;;;;;0.47;0.47;;;;;;;1.55;100.00;101580.91;5527468;26;20316;-47
2024/04/18 04:35:26;;;;;;;0.47;0.47;;;;;;;1.54;100.00;101591.81;5526714;26;20008;-47
2024/04/18 04:37:51;;;;;;;0.40;0.40;;;;;;;1.52;100.00;101588.25;5526364;26;20425;-48
2024/04/18 04:40:16;;;;;;;0.43;0.43;;;;;;;1.55;100.00;101597.78;5527134;26;19993;-50
2024/04/18 04:42:41;;;;;;;0.40;0.40;;;;;;;1.54;100.00;101598.56;5526760;26;20451;-47
2024/04/18 04:45:07;;;;;;;0.40;0.40;;;;;;;1.50;100.00;101594.88;5525988;26;19994;-47
2024/04/18 04:47:32;;;;;;;0.50;0.50;;;;;;;1.50;100.00;101602.50;5525815;26;19998;-50
2024/04/18 04:49:58;;;;;;;0.40;0.40;;;;;;;1.46;100.00;101605.59;5527086;26;20009;-49
2024/04/18 04:52:23;;;;;;;0.50;0.50;;;;;;;1.50;100.00;101607.59;5525669;26;19993;-50
2024/04/18 04:54:48;;;;;;;0.40;0.40;;;;;;;1.52;100.00;101608.59;5526902;26;20456;-49
2024/04/18 04:57:14;;;;;;;0.50;0.50;;;;;;;1.47;100.00;101609.88;5526086;26;19997;-47
2024/04/18 04:59:39;;;;;;;0.50;0.50;;;;;;;1.52;100.00;101610.25;5526554;26;19993;-46
2024/04/18 05:02:05;;;;;;;0.40;0.40;;;;;;;1.50;100.00;101629.56;5526532;26;20029;-47
2024/04/18 05:04:30;;;;;;;0.50;0.50;;;;;;;1.53;100.00;101619.66;5525491;26;20074;-47
2024/04/18 05:06:55;;;;;;;0.40;0.40;;;;;;;1.53;100.00;101625.59;5526555;26;20008;-50
2024/04/18 05:09:21;;;;;;;0.50;0.50;;;;;;;1.63;100.00;101629.78;5526467;26;20414;-49
2024/04/18 05:11:46;;;;;;;0.40;0.40;;;;;;;1.62;100.00;101633.94;5525942;26;19997;-47
2024/04/18 05:14:12;;;;;;;0.40;0.40;;;;;;;1.72;100.00;101634.69;5526751;26;19993;-47
2024/04/18 05:16:38;;;;;;;0.40;0.40;;;;;;;1.77;100.00;101640.97;5526683;26;20013;-47
2024/04/18 05:19:04;;;;;;;0.30;0.30;;;;;;;1.73;100.00;101641.53;5525476;26;20421;-48
2024/04/18 05:21:29;;;;;;;0.40;0.40;;;;;;;1.83;100.00;101643.13;5526430;26;20006;-47
2024/04/18 05:23:55;;;;;;;0.30;0.30;;;;;;;1.83;100.00;101646.56;5526316;26;20317;-47
2024/04/18 05:26:20;;;;;;;0.47;0.47;;;;;;;1.96;100.00;101650.94;5525127;26;19998;-46
2024/04/18 05:31:29;;;;;;;0.40;0.40;;;;;;;1.94;100.00;101666.06;5526322;26;20061;-47
2024/04/18 05:33:55;;;;;;;0.40;0.40;;;;;;;2.09;100.00;101665.47;5525427;26;19993;-50
2024/04/18 05:36:20;;;;;;;0.32;0.32;;;;;;;2.17;100.00;101663.53;5526115;26;19997;-46
2024/04/18 05:38:45;;;;;;;0.40;0.40;;;;;;;2.13;100.00;101667.47;5526624;26;19994;-46
2024/04/18 05:41:11;;;;;;;0.40;0.40;;;;;;;2.17;100.00;101672.06;5525526;26;19997;-47
2024/04/18 05:43:36;;;;;;;0.47;0.47;;;;;;;2.23;100.00;101680.13;5526394;26;19993;-46
2024/04/18 05:46:01;;;;;;;0.40;0.40;;;;;;;2.23;100.00;101680.13;5526351;26;20348;-47
2024/04/18 05:48:27;;;;;;;0.50;0.50;;;;;;;2.30;100.00;101686.59;5525086;26;19993;-47
2024/04/18 05:50:52;;;;;;;0.50;0.50;;;;;;;2.36;100.00;101686.16;5526050;26;19993;-47
2024/04/18 05:53:18;;;;;;;0.40;0.40;;;;;;;2.45;100.00;101681.78;5525883;26;20001;-47
2024/04/18 05:55:43;;;;;;;0.40;0.40;;;;;;;2.42;100.00;101686.66;5524976;26;19994;-47
2024/04/18 05:58:09;;;;;;;0.30;0.30;;;;;;;2.50;100.00;101677.94;5525703;26;19998;-47
2024/04/18 06:00:34;;;;;;;0.40;0.40;;;;;;;2.59;100.00;101691.34;5523464;26;19997;-47
2024/04/18 06:02:59;;;;;;;0.40;0.40;;;;;;;2.70;100.00;101696.34;5525989;26;19999;-46
2024/04/18 06:05:25;;;;;;;0.40;0.40;;;;;;;2.76;100.00;101700.25;5525274;26;20065;-50
2024/04/18 06:07:50;;;;;;;0.40;0.40;;;;;;;2.86;100.00;101709.47;5525196;26;20409;-46
2024/04/18 06:10:16;;;;;;;0.40;0.40;;;;;;;2.94;100.00;101710.94;5525499;26;20005;-48
2024/04/18 06:12:41;;;;;;;0.40;0.40;;;;;;;3.03;100.00;101710.69;5525715;26;19997;-49
2024/04/18 06:15:07;;;;;;;0.47;0.47;;;;;;;3.09;100.00;101716.25;5524745;26;20398;-48
2024/04/18 06:17:32;;;;;;;0.40;0.40;;;;;;;3.18;100.00;101723.69;5525303;26;19997;-50
2024/04/18 06:19:57;;;;;;;0.50;0.50;;;;;;;3.27;100.00;101732.00;5525756;26;20337;-49
2024/04/18 06:22:22;;;;;;;0.47;0.47;;;;;;;3.36;100.00;101741.13;5524236;26;19997;-47
2024/04/18 06:24:50;;;;;;;0.40;0.40;;;;;;;3.47;100.00;101737.66;5525842;26;20005;-47
2024/04/18 06:27:15;;;;;;;0.50;0.50;;;;;;;3.55;100.00;101744.22;5525416;26;20021;-49
2024/04/18 06:29:40;;;;;;;0.40;0.40;;;;;;;3.63;100.00;101743.09;5524536;26;20065;-47
2024/04/18 06:32:06;;;;;;;0.40;0.40;;;;;;;3.64;100.00;101741.44;5525409;26;19994;-46
2024/04/18 06:34:31;;;;;;;0.40;0.40;;;;;;;3.70;100.00;101744.44;5525299;26;20346;-49
2024/04/18 06:36:56;;;;;;;0.40;0.40;;;;;;;3.78;100.00;101753.53;5524321;26;19998;-50
2024/04/18 06:39:21;;;;;;;0.40;0.40;;;;;;;3.86;100.00;101754.06;5524799;26;20358;-49
2024/04/18 06:41:47;;;;;;;0.40;0.40;;;;;;;3.95;100.00;101753.81;5525235;26;20332;-47
2024/04/18 06:44:12;;;;;;;0.32;0.32;;;;;;;4.02;100.00;101748.38;5524088;26;20008;-46
2024/04/18 06:46:38;;;;;;;0.40;0.40;;;;;;;4.08;100.00;101747.91;5524579;26;19993;-48
2024/04/18 06:49:04;;;;;;;0.40;0.40;;;;;;;4.19;100.00;101754.66;5525020;26;20447;-46
2024/04/18 06:51:29;;;;;;;0.40;0.40;;;;;;;4.24;100.00;101757.56;5524013;26;20009;-47
2024/04/18 06:53:54;;;;;;;0.40;0.40;;;;;;;4.38;100.00;101761.94;5525096;26;20439;-48
2024/04/18 06:56:20;;;;;;;0.30;0.30;;;;;;;4.41;100.00;101763.84;5524974;26;19997;-47
2024/04/18 06:58:46;;;;;;;0.40;0.40;;;;;;;4.49;100.00;101766.91;5524263;26;20437;-51
2024/04/18 07:01:11;;;;;;;0.40;0.40;;;;;;;4.59;100.00;101772.75;5524683;26;20009;-46
2024/04/18 07:03:37;;;;;;;0.40;0.40;;;;;;;4.66;100.00;101768.97;5524272;26;20004;-47
2024/04/18 07:06:02;;;;;;;0.40;0.40;;;;;;;4.71;100.00;101775.28;5524221;26;20009;-48
2024/04/18 07:08:28;;;;;;;0.30;0.30;;;;;;;4.86;100.00;101774.53;5524007;26;20024;-47
2024/04/18 07:10:53;;;;;;;0.40;0.40;;;;;;;4.85;100.00;101783.84;5525328;26;20009;-47
2024/04/18 07:13:19;;;;;;;0.30;0.30;;;;;;;5.03;100.00;101785.91;5528618;26;20081;-47
2024/04/18 07:15:44;;;;;;;0.40;0.40;;;;;;;5.00;100.00;101789.13;5528363;26;19993;-49
2024/04/18 07:18:10;;;;;;;0.30;0.30;;;;;;;5.14;100.00;101781.50;5527693;26;20003;-47
2024/04/18 07:20:35;;;;;;;0.38;0.38;;;;;;;5.24;100.00;101784.78;5527878;26;20008;-50
2024/04/18 07:23:00;;;;;;;0.30;0.30;;;;;;;5.39;100.00;101792.56;5528527;26;20009;-51
2024/04/18 07:25:25;;;;;;;0.30;0.30;;;;;;;5.43;100.00;101786.84;5526893;26;20365;-49
2024/04/18 07:27:51;;;;;;;0.30;0.30;;;;;;;5.56;100.00;101798.75;5528214;26;19993;-51
2024/04/18 07:30:16;;;;;;;0.28;0.28;;;;;;;5.70;100.00;101796.25;5528242;26;20069;-50
2024/04/18 07:32:42;;;;;;;0.30;0.30;;;;;;;5.72;100.00;101794.66;5527215;26;20010;-50
2024/04/18 07:35:07;;;;;;;0.40;0.40;;;;;;;5.85;100.00;101797.22;5527876;26;20065;-47
2024/04/18 07:37:33;;;;;;;0.30;0.30;;;;;;;5.91;100.00;101802.75;5527631;26;20005;-48
2024/04/18 07:40:01;;;;;;;0.35;0.35;;;;;;;6.03;100.00;101787.31;5527097;26;19997;-50
2024/04/18 07:42:26;;;;;;;0.40;0.40;;;;;;;6.15;100.00;101796.56;5527876;26;20428;-51
2024/04/18 07:44:51;;;;;;;0.32;0.32;;;;;;;6.18;100.00;101799.28;5528154;26;20007;-49
2024/04/18 07:47:16;;;;;;;0.30;0.30;;;;;;;6.26;100.00;101801.56;5526984;26;19997;-49
2024/04/18 07:49:42;;;;;;;0.30;0.30;;;;;;;6.36;100.00;101797.00;5527573;26;20072;-51
2024/04/18 07:52:10;;;;;;;0.40;0.40;;;;;;;6.47;100.00;101802.78;5527725;26;20064;-47
2024/04/18 07:54:36;;;;;;;0.32;0.32;;;;;;;6.51;100.00;101807.31;5526647;26;20325;-47
2024/04/18 07:57:01;;;;;;;0.25;0.25;;;;;;;6.64;100.00;101803.84;5527737;26;20004;-48
2024/04/18 07:59:26;;;;;;;0.30;0.30;;;;;;;6.61;100.00;101809.66;5527486;26;19998;-51
2024/04/18 08:01:52;;;;;;;0.20;0.20;;;;;;;6.66;100.00;101812.47;5527000;26;20001;-51
2024/04/18 08:04:17;;;;;;;0.30;0.30;;;;;;;6.73;100.00;101814.63;5527738;26;19997;-47
2024/04/18 08:06:42;;;;;;;0.40;0.40;;;;;;;6.81;100.00;101818.53;5527285;26;20439;-51
2024/04/18 08:09:08;;;;;;;0.30;0.30;;;;;;;6.84;100.00;101821.31;5526358;26;20007;-51
2024/04/18 08:11:33;;;;;;;0.28;0.28;;;;;;;6.85;100.00;101823.03;5527237;26;20440;-47
2024/04/18 08:13:58;;;;;;;0.30;0.30;;;;;;;7.07;100.00;101822.66;5527474;26;20069;-51
2024/04/18 08:16:23;;;;;;;0.30;0.30;;;;;;;7.31;100.00;101822.34;5526427;26;20432;-50
2024/04/18 08:18:49;;;;;;;0.30;0.30;;;;;;;7.60;100.00;101822.25;5527505;26;19993;-47
2024/04/18 08:21:14;;;;;;;0.30;0.30;;;;;;;7.87;100.00;101831.50;5526143;26;20008;-47
2024/04/18 08:23:39;;;;;;;0.30;0.30;;;;;;;8.06;100.00;101837.69;5526231;26;20004;-50
2024/04/18 08:26:05;;;;;;;0.30;0.30;;;;;;;8.11;100.00;101845.63;5527209;26;19993;-50
2024/04/18 08:28:31;;;;;;;0.30;0.30;;;;;;;8.08;100.00;101841.22;5526364;26;20073;-51
2024/04/18 08:30:56;;;;;;;0.30;0.30;;;;;;;8.24;100.00;101855.81;5527208;26;20008;-50
2024/04/18 08:33:21;;;;;;;0.20;0.20;;;;;;;8.26;100.00;101848.19;5526794;26;20413;-51
2024/04/18 08:35:47;;;;;;;0.30;0.30;;;;;;;8.30;100.00;101843.31;5526298;26;20127;-51
2024/04/18 08:38:12;;;;;;;0.40;0.40;;;;;;;8.49;100.00;101854.63;5527286;26;20068;-51
2024/04/18 08:40:38;;;;;;;0.20;0.20;;;;;;;8.44;100.00;101856.00;5526895;26;19998;-47
2024/04/18 08:43:04;;;;;;;0.30;0.30;;;;;;;8.34;100.00;101849.47;5526136;26;20080;-48
2024/04/18 08:45:35;;;;;;;0.20;0.20;;;;;;;8.27;100.00;101855.09;5526719;26;20460;-51
2024/04/18 08:48:01;;;;;;;0.20;0.20;;;;;;;8.20;100.00;101857.31;5526790;26;19993;-50
2024/04/18 08:50:29;;;;;;;0.25;0.25;;;;;;;8.08;100.00;101857.53;5526016;26;20030;-52
2024/04/18 08:52:55;;;;;;;0.30;0.30;;;;;;;8.02;100.00;101861.44;5526777;26;19998;-50
2024/04/18 08:55:22;;;;;;;0.20;0.20;;;;;;;8.03;100.00;101860.63;5526943;26;20012;-49
2024/04/18 08:57:52;;;;;;;0.30;0.30;;;;;;;8.24;100.00;101861.81;5526400;26;20009;-49
2024/04/18 09:00:17;;;;;;;0.30;0.30;;;;;;;8.43;100.00;101861.94;5526716;26;20021;-50
2024/04/18 09:02:44;;;;;;;0.30;0.30;;;;;;;8.78;100.00;101860.44;5526831;26;20317;-52
2024/04/18 09:05:10;;;;;;;0.20;0.20;;;;;;;9.14;100.00;101861.50;5525924;26;20045;-47
2024/04/18 09:07:35;;;;;;;0.25;0.25;;;;;;;9.19;100.00;101864.28;5526291;26;20555;-51
2024/04/18 09:10:05;;;;;;;0.17;0.17;;;;;;;9.20;100.00;101869.50;5526903;26;20034;-51
2024/04/18 09:12:31;;;;;;;0.20;0.20;;;;;;;9.07;99.24;101874.81;5525455;26;19993;-50
2024/04/18 09:14:56;;;;;;;0.20;0.20;;;;;;;8.95;100.00;101882.78;5526603;26;20004;-51
2024/04/18 09:17:21;;;;;;;0.30;0.30;;;;;;;8.90;100.00;101884.22;5525632;26;20069;-51
2024/04/18 09:19:47;;;;;;;0.20;0.20;;;;;;;8.85;100.00;101880.53;5526598;26;20008;-50
2024/04/18 09:22:12;;;;;;;0.30;0.30;;;;;;;8.95;100.00;101885.34;5526388;26;20009;-51
2024/04/18 09:24:43;;;;;;;0.20;0.20;;;;;;;8.93;100.00;101888.66;5525288;26;19997;-51
2024/04/18 09:27:08;;;;;;;0.30;0.30;;;;;;;8.96;100.00;101888.78;5526245;26;20065;-49
2024/04/18 09:29:34;;;;;;;0.20;0.20;;;;;;;8.94;100.00;101882.72;5526396;26;20025;-48
2024/04/18 09:32:00;;;;;;;0.30;0.30;;;;;;;8.89;100.00;101887.59;5525432;26;20034;-51
2024/04/18 09:34:26;;;;;;;0.20;0.20;;;;;;;9.05;100.00;101889.28;5525714;26;20433;-51
2024/04/18 09:36:52;;;;;;;0.20;0.20;;;;;;;9.11;100.00;101894.75;5526495;26;20028;-50
2024/04/18 09:39:25;;;;;;;0.30;0.30;;;;;;;9.20;100.00;101902.94;5525683;26;20551;-49
2024/04/18 09:42:04;;;;;;;0.20;0.20;;;;;;;9.16;100.00;101903.59;5526662;26;20009;-51
2024/04/18 09:44:31;;;;;;;0.30;0.30;;;;;;;9.28;100.00;101903.34;5526182;26;19993;-50
2024/04/18 09:46:58;;;;;;;0.20;0.20;;;;;;;9.36;98.96;101902.06;5525127;26;19997;-48
2024/04/18 09:49:23;;;;;;;0.30;0.30;;;;;;;9.38;100.00;101897.00;5525949;26;20256;-50
2024/04/18 09:51:50;;;;;;;0.30;0.30;;;;;;;9.51;94.86;101901.94;5526177;26;20001;-48
2024/04/18 09:54:16;;;;;;;0.25;0.25;;;;;;;9.50;91.22;101902.78;5525181;26;19993;-52
2024/04/18 09:56:42;;;;;;;0.20;0.20;;;;;;;9.55;95.34;101903.91;5525918;26;20007;-49
2024/04/18 09:59:08;;;;;;;0.30;0.30;;;;;;;9.69;97.42;101906.28;5525730;26;20029;-48
2024/04/18 10:01:35;;;;;;;0.20;0.20;;;;;;;9.60;91.34;101898.09;5524776;26;20033;-51
2024/04/18 10:04:00;;;;;;;0.20;0.20;;;;;;;9.70;89.07;101890.03;5525682;26;20452;-50
2024/04/18 10:06:35;;;;;;;0.30;0.30;;;;;;;11.16;90.03;101893.41;5525864;26;19997;-51
2024/04/18 10:09:01;;;;;;;0.28;0.28;;;;;;;12.71;80.29;101886.78;5525733;26;19997;-49
2024/04/18 10:11:28;;;;;;;0.20;0.20;;;;;;;13.86;74.25;101890.81;5525254;26;20012;-50
2024/04/18 10:13:59;;;;;;;0.20;0.20;;;;;;;13.63;65.00;101902.19;5524984;26;20008;-50
2024/04/18 10:16:24;;;;;;;0.20;0.20;;;;;;;13.18;65.52;101887.66;5525538;26;19997;-47
2024/04/18 10:18:51;;;;;;;0.20;0.20;;;;;;;12.90;65.76;101892.63;5525662;26;20467;-48
2024/04/18 10:21:25;;;;;;;0.17;0.17;;;;;;;12.80;69.44;101891.44;5525230;26;20026;-51
2024/04/18 10:23:52;;;;;;;0.17;0.17;;;;;;;12.43;68.30;101890.88;5525941;26;20009;-50
2024/04/18 10:26:20;;;;;;;0.20;0.20;;;;;;;12.03;68.78;101889.31;5525369;26;20008;-50
2024/04/18 10:28:46;;;;;;;0.20;0.20;;;;;;;11.65;73.06;101881.72;5524724;26;20008;-50
2024/04/18 10:31:12;;;;;;;0.20;0.20;;;;;;;11.64;71.25;101879.97;5525222;26;19994;-48
2024/04/18 10:33:42;;;;;;;0.20;0.20;;;;;;;11.47;71.09;101887.00;5525350;26;20069;-51
2024/04/18 10:36:17;;;;;;;0.20;0.20;;;;;;;11.14;69.95;101896.75;5524449;26;20393;-50
2024/04/18 10:38:44;;;;;;;0.10;0.10;;;;;;;11.30;70.98;101888.00;5525220;26;19998;-50
2024/04/18 10:41:12;;;;;;;0.20;0.20;;;;;;;12.65;71.36;101904.66;5524977;26;19993;-50
2024/04/18 10:43:39;;;;;;;0.20;0.20;;;;;;;14.00;66.13;101894.72;5524215;26;19993;-51
2024/04/18 10:46:07;;;;;;;0.20;0.20;;;;;;;14.89;57.18;101896.59;5526771;26;20476;-51
2024/04/18 10:48:34;;;;;;;0.10;0.10;;;;;;;15.60;52.93;101897.63;5528293;26;20336;-50
2024/04/18 10:51:02;;;;;;;0.10;0.10;;;;;;;16.15;53.49;101898.13;5527952;26;19997;-51
2024/04/18 10:53:27;;;;;;;0.10;0.10;;;;;;;17.03;51.38;101894.84;5528560;26;20432;-47
2024/04/18 10:55:52;;;;;;;0.10;0.10;;;;;;;17.81;49.82;101904.91;5527703;26;20023;-51
2024/04/18 10:58:18;;;;;;;0.10;0.10;;;;;;;18.09;45.36;101905.41;5528893;26;19998;-51
2024/04/18 11:00:43;;;;;;;0.10;0.10;;;;;;;16.83;42.44;101903.94;5528183;26;20069;-51
2024/04/18 11:03:09;;;;;;;0.10;0.10;;;;;;;15.96;46.33;101896.81;5527862;26;20001;-49
2024/04/18 11:05:37;;;;;;;0.10;0.10;;;;;;;15.27;45.49;101899.38;5528063;26;19997;-50
2024/04/18 11:08:03;;;;;;;0.10;0.10;;;;;;;16.12;48.31;101904.13;5528517;26;20433;-51
2024/04/18 11:10:29;;;;;;;0.10;0.10;;;;;;;16.74;45.38;101902.88;5527295;26;20005;-48
2024/04/18 11:12:56;;;;;;;0.10;0.10;;;;;;;17.59;45.49;101901.94;5528384;26;20001;-49
2024/04/18 11:15:22;;;;;;;0.10;0.10;;;;;;;17.98;43.85;101906.97;5528265;26;19997;-48
2024/04/18 11:17:48;;;;;;;0.00;0.00;;;;;;;16.81;42.16;101906.53;5527840;26;20038;-48
2024/04/18 11:20:13;;;;;;;0.10;0.10;;;;;;;15.90;43.95;101902.72;5528042;26;19993;-48